createdAt,value
2019-02-25T00:00:17.926Z,0
2019-02-25T00:00:58.381Z,0
2019-02-25T00:01:38.793Z,0
2019-02-25T00:02:19.179Z,0
2019-02-25T00:02:59.617Z,0
2019-02-25T00:03:40.003Z,0
2019-02-25T00:04:20.421Z,0
2019-02-25T00:05:00.821Z,0
2019-02-25T00:05:41.219Z,0
2019-02-25T00:06:21.575Z,0
2019-02-25T00:07:01.958Z,0
2019-02-25T00:07:42.370Z,0
2019-02-25T00:08:22.710Z,0
2019-02-25T00:09:03.132Z,0
2019-02-25T00:09:43.515Z,0
2019-02-25T00:10:23.926Z,0
2019-02-25T00:11:04.325Z,0
2019-02-25T00:11:44.701Z,0
2019-02-25T00:12:25.086Z,0
2019-02-25T00:13:05.476Z,0
2019-02-25T00:13:45.896Z,0
2019-02-25T00:14:26.393Z,0
2019-02-25T00:15:06.692Z,0
2019-02-25T00:15:48.766Z,0
2019-02-25T00:16:29.180Z,0
2019-02-25T00:17:09.563Z,0
2019-02-25T00:17:49.982Z,0
2019-02-25T00:18:30.391Z,0
2019-02-25T00:19:10.790Z,0
2019-02-25T00:19:51.161Z,0
2019-02-25T00:20:31.540Z,0
2019-02-25T00:21:11.915Z,0
2019-02-25T00:21:52.318Z,0
2019-02-25T00:22:32.748Z,0
2019-02-25T00:23:13.177Z,0
2019-02-25T00:23:53.556Z,0
2019-02-25T00:24:34.892Z,0
2019-02-25T00:25:24.009Z,0
2019-02-25T00:26:04.422Z,0
2019-02-25T00:26:44.846Z,0
2019-02-25T00:27:25.276Z,0
2019-02-25T00:28:05.706Z,0
2019-02-25T00:28:46.128Z,0
2019-02-25T00:29:26.508Z,0
2019-02-25T00:30:06.897Z,0
2019-02-25T00:30:57.827Z,0
2019-02-25T00:31:38.301Z,0
2019-02-25T00:32:18.666Z,0
2019-02-25T00:32:59.070Z,0
2019-02-25T00:33:39.499Z,0
2019-02-25T00:34:19.896Z,0
2019-02-25T00:35:00.308Z,0
2019-02-25T00:35:40.729Z,0
2019-02-25T00:36:21.099Z,0
2019-02-25T00:37:01.490Z,0
2019-02-25T00:37:41.883Z,0
2019-02-25T00:38:22.280Z,0
2019-02-25T00:39:02.645Z,0
2019-02-25T00:39:43.027Z,0
2019-02-25T00:40:23.404Z,0
2019-02-25T00:41:03.803Z,0
2019-02-25T00:41:46.054Z,0
2019-02-25T00:42:26.447Z,0
2019-02-25T00:43:06.845Z,0
2019-02-25T00:43:47.239Z,0
2019-02-25T00:44:27.659Z,0
2019-02-25T00:45:08.063Z,0
2019-02-25T00:45:48.440Z,0
2019-02-25T00:46:28.794Z,0
2019-02-25T00:47:09.180Z,0
2019-02-25T00:47:49.608Z,0
2019-02-25T00:48:29.956Z,0
2019-02-25T00:49:10.396Z,0
2019-02-25T00:49:50.726Z,0
2019-02-25T00:50:31.124Z,0
2019-02-25T00:51:11.506Z,0
2019-02-25T00:51:51.914Z,0
2019-02-25T00:52:32.344Z,0
2019-02-25T00:53:12.757Z,0
2019-02-25T00:53:53.155Z,0
2019-02-25T00:54:33.506Z,0
2019-02-25T00:55:13.901Z,0
2019-02-25T00:55:54.356Z,0
2019-02-25T00:56:34.712Z,0
2019-02-25T00:57:15.100Z,0
2019-02-25T00:57:55.507Z,0
2019-02-25T00:58:35.876Z,0
2019-02-25T00:59:16.281Z,0
2019-02-25T00:59:56.699Z,0
2019-02-25T01:00:37.087Z,0
2019-02-25T01:01:17.525Z,0
2019-02-25T01:01:57.895Z,0
2019-02-25T01:02:38.307Z,0
2019-02-25T01:03:18.730Z,0
2019-02-25T01:03:59.174Z,0
2019-02-25T01:04:39.539Z,0
2019-02-25T01:05:19.935Z,0
2019-02-25T01:06:00.356Z,0
2019-02-25T01:06:40.694Z,0
2019-02-25T01:07:21.138Z,0
2019-02-25T01:08:01.528Z,0
2019-02-25T01:08:41.964Z,0
2019-02-25T01:09:22.380Z,0
2019-02-25T01:10:02.930Z,0
2019-02-25T01:10:43.326Z,0
2019-02-25T01:11:23.750Z,0
2019-02-25T01:12:04.143Z,0
2019-02-25T01:12:44.540Z,0
2019-02-25T01:13:24.933Z,0
2019-02-25T01:14:05.343Z,0
2019-02-25T01:14:45.733Z,0
2019-02-25T01:15:26.121Z,0
2019-02-25T01:16:06.539Z,0
2019-02-25T01:16:46.947Z,0
2019-02-25T01:17:27.324Z,0
2019-02-25T01:18:07.763Z,0
2019-02-25T01:18:48.109Z,0
2019-02-25T01:19:28.507Z,0
2019-02-25T01:20:08.903Z,0
2019-02-25T01:20:49.297Z,0
2019-02-25T01:21:29.703Z,0
2019-02-25T01:22:10.058Z,0
2019-02-25T01:22:50.439Z,0
2019-02-25T01:23:30.808Z,0
2019-02-25T01:24:11.247Z,0
2019-02-25T01:24:51.589Z,0
2019-02-25T01:25:31.958Z,0
2019-02-25T01:26:12.345Z,0
2019-02-25T01:26:52.778Z,0
2019-02-25T01:27:33.134Z,0
2019-02-25T01:28:13.567Z,0
2019-02-25T01:28:53.890Z,0
2019-02-25T01:29:34.291Z,0
2019-02-25T01:31:43.090Z,0
2019-02-25T01:34:15.492Z,0
2019-02-25T01:34:55.824Z,0
2019-02-25T01:35:36.269Z,0
2019-02-25T01:36:16.573Z,0
2019-02-25T01:36:56.980Z,0
2019-02-25T01:37:37.358Z,0
2019-02-25T01:38:17.776Z,0
2019-02-25T01:38:58.181Z,0
2019-02-25T01:39:38.602Z,0
2019-02-25T01:49:32.830Z,0
2019-02-25T01:50:21.615Z,0
2019-02-25T01:51:10.807Z,0
2019-02-25T01:51:59.303Z,0
2019-02-25T01:52:50.674Z,0
2019-02-25T01:53:40.791Z,0
2019-02-25T01:54:32.947Z,0
2019-02-25T01:55:23.797Z,0
2019-02-25T01:56:13.729Z,0
2019-02-25T01:57:02.267Z,0
2019-02-25T01:57:52.519Z,0
2019-02-25T01:58:41.044Z,0
2019-02-25T01:59:31.639Z,0
2019-02-25T02:00:22.972Z,0
2019-02-25T02:01:14.122Z,0
2019-02-25T02:02:05.388Z,0
2019-02-25T02:02:53.467Z,0
2019-02-25T02:03:44.970Z,0
2019-02-25T02:04:33.502Z,0
2019-02-25T02:05:24.395Z,0
2019-02-25T02:06:15.737Z,0
2019-02-25T02:07:07.073Z,0
2019-02-25T02:07:57.870Z,0
2019-02-25T02:08:47.887Z,0
2019-02-25T02:09:37.585Z,0
2019-02-25T02:10:27.938Z,0
2019-02-25T02:11:20.103Z,0
2019-02-25T02:12:09.181Z,0
2019-02-25T02:12:59.496Z,0
2019-02-25T02:15:32.678Z,0
2019-02-25T02:16:13.078Z,0
2019-02-25T02:16:53.475Z,0
2019-02-25T02:17:33.895Z,0
2019-02-25T02:18:14.268Z,0
2019-02-25T02:18:54.669Z,0
2019-02-25T02:19:35.040Z,0
2019-02-25T02:20:15.445Z,0
2019-02-25T02:20:55.852Z,0
2019-02-25T02:21:36.282Z,0
2019-02-25T02:22:16.655Z,0
2019-02-25T02:22:57.059Z,0
2019-02-25T02:23:37.468Z,0
2019-02-25T02:24:17.896Z,0
2019-02-25T02:24:58.305Z,0
2019-02-25T02:25:38.732Z,0
2019-02-25T02:26:21.039Z,0
2019-02-25T02:26:59.512Z,0
2019-02-25T02:27:39.913Z,0
2019-02-25T02:28:20.342Z,0
2019-02-25T02:29:00.745Z,0
2019-02-25T02:29:41.146Z,0
2019-02-25T02:30:21.646Z,0
2019-02-25T02:31:01.945Z,0
2019-02-25T02:31:42.348Z,0
2019-02-25T02:32:22.724Z,0
2019-02-25T02:33:03.085Z,0
2019-02-25T02:33:43.466Z,0
2019-02-25T02:34:23.867Z,0
2019-02-25T02:35:04.227Z,0
2019-02-25T02:35:44.630Z,0
2019-02-25T02:36:25.027Z,0
2019-02-25T02:37:05.412Z,0
2019-02-25T02:37:47.435Z,0
2019-02-25T02:38:27.804Z,0
2019-02-25T02:39:08.254Z,0
2019-02-25T02:39:48.658Z,0
2019-02-25T02:40:29.071Z,0
2019-02-25T02:41:09.489Z,0
2019-02-25T02:41:49.878Z,0
2019-02-25T02:42:30.306Z,0
2019-02-25T02:43:10.690Z,0
2019-02-25T02:43:51.087Z,0
2019-02-25T02:44:31.489Z,0
2019-02-25T02:45:11.936Z,0
2019-02-25T02:45:52.288Z,0
2019-02-25T02:46:32.677Z,0
2019-02-25T02:47:13.082Z,0
2019-02-25T02:47:53.461Z,0
2019-02-25T02:48:33.843Z,0
2019-02-25T02:49:14.214Z,0
2019-02-25T02:49:54.625Z,0
2019-02-25T02:50:34.993Z,0
2019-02-25T02:51:15.410Z,0
2019-02-25T02:51:55.787Z,0
2019-02-25T02:52:36.201Z,0
2019-02-25T02:53:16.625Z,0
2019-02-25T02:53:57.077Z,0
2019-02-25T02:54:37.535Z,0
2019-02-25T02:55:17.896Z,0
2019-02-25T02:55:58.288Z,0
2019-02-25T02:56:38.698Z,0
2019-02-25T02:57:19.138Z,0
2019-02-25T02:57:59.522Z,0
2019-02-25T02:58:39.896Z,0
2019-02-25T02:59:20.295Z,0
2019-02-25T03:00:00.702Z,0
2019-02-25T03:00:41.117Z,0
2019-02-25T03:01:21.496Z,0
2019-02-25T03:02:01.921Z,0
2019-02-25T03:02:42.295Z,0
2019-02-25T03:03:22.733Z,0
2019-02-25T03:04:03.082Z,0
2019-02-25T03:04:43.483Z,0
2019-02-25T03:05:23.916Z,0
2019-02-25T03:06:04.291Z,0
2019-02-25T03:06:44.722Z,0
2019-02-25T03:07:25.158Z,0
2019-02-25T03:08:05.493Z,0
2019-02-25T03:08:45.929Z,0
2019-02-25T03:09:26.331Z,0
2019-02-25T03:10:06.731Z,0
2019-02-25T03:10:47.141Z,0
2019-02-25T03:11:27.553Z,0
2019-02-25T03:12:07.991Z,0
2019-02-25T03:12:48.350Z,0
2019-02-25T03:13:28.769Z,0
2019-02-25T03:18:18.936Z,0
2019-02-25T03:19:07.123Z,0
2019-02-25T03:19:58.320Z,0
2019-02-25T03:20:46.785Z,0
2019-02-25T03:21:35.933Z,0
2019-02-25T03:22:30.617Z,0
2019-02-25T03:23:12.824Z,0
2019-02-25T03:23:53.206Z,0
2019-02-25T03:24:33.751Z,0
2019-02-25T03:25:14.258Z,0
2019-02-25T03:25:54.741Z,0
2019-02-25T03:26:35.125Z,0
2019-02-25T03:27:15.542Z,0
2019-02-25T03:27:55.965Z,0
2019-02-25T03:28:36.473Z,0
2019-02-25T03:29:16.875Z,0
2019-02-25T03:29:57.356Z,0
2019-02-25T03:30:37.783Z,0
2019-02-25T03:31:18.240Z,0
2019-02-25T03:31:58.616Z,0
2019-02-25T03:32:39.140Z,0
2019-02-25T03:33:19.514Z,0
2019-02-25T03:34:00.178Z,0
2019-02-25T03:34:40.452Z,0
2019-02-25T03:35:20.902Z,0
2019-02-25T03:36:01.251Z,0
2019-02-25T03:36:41.615Z,0
2019-02-25T03:37:22.128Z,0
2019-02-25T03:38:02.452Z,0
2019-02-25T03:38:43.057Z,0
2019-02-25T03:39:23.629Z,0
2019-02-25T03:40:04.065Z,0
2019-02-25T03:40:44.510Z,0
2019-02-25T03:41:25.145Z,0
2019-02-25T03:42:05.606Z,0
2019-02-25T03:42:46.238Z,0
2019-02-25T03:43:26.932Z,0
2019-02-25T03:44:07.427Z,0
2019-02-25T03:44:47.818Z,0
2019-02-25T03:45:28.442Z,0
2019-02-25T03:46:09.368Z,0
2019-02-25T03:46:49.877Z,0
2019-02-25T03:47:30.425Z,0
2019-02-25T03:48:10.757Z,0
2019-02-25T03:48:51.269Z,0
2019-02-25T03:49:31.958Z,0
2019-02-25T03:50:12.377Z,0
2019-02-25T03:50:52.798Z,0
2019-02-25T03:51:33.446Z,0
2019-02-25T03:52:13.941Z,0
2019-02-25T03:52:54.510Z,0
2019-02-25T03:53:34.967Z,0
2019-02-25T03:54:15.280Z,0
2019-02-25T03:54:55.900Z,0
2019-02-25T03:55:36.259Z,0
2019-02-25T03:56:16.565Z,0
2019-02-25T03:56:57.185Z,0
2019-02-25T03:57:37.713Z,0
2019-02-25T03:58:18.013Z,0
2019-02-25T03:58:58.445Z,0
2019-02-25T03:59:38.836Z,0
2019-02-25T04:00:19.284Z,0
2019-02-25T04:00:59.668Z,0
2019-02-25T04:01:40.085Z,0
2019-02-25T04:02:20.574Z,0
2019-02-25T04:03:00.989Z,0
2019-02-25T04:03:41.397Z,0
2019-02-25T04:04:21.738Z,0
2019-02-25T04:05:02.144Z,0
2019-02-25T04:05:42.548Z,0
2019-02-25T04:06:22.942Z,0
2019-02-25T04:07:03.405Z,0
2019-02-25T04:07:43.795Z,0
2019-02-25T04:08:24.330Z,0
2019-02-25T04:09:04.710Z,0
2019-02-25T04:09:45.088Z,0
2019-02-25T04:10:25.555Z,0
2019-02-25T04:11:06.061Z,0
2019-02-25T04:11:46.487Z,0
2019-02-25T04:12:27.225Z,0
2019-02-25T04:13:07.388Z,0
2019-02-25T04:13:47.842Z,0
2019-02-25T04:14:28.270Z,0
2019-02-25T04:15:08.665Z,0
2019-02-25T04:15:49.190Z,0
2019-02-25T04:16:29.495Z,0
2019-02-25T04:17:09.965Z,0
2019-02-25T04:17:50.512Z,0
2019-02-25T04:18:30.963Z,0
2019-02-25T04:19:11.467Z,0
2019-02-25T04:19:52.024Z,0
2019-02-25T04:20:32.633Z,0
2019-02-25T04:21:13.306Z,0
2019-02-25T04:21:53.668Z,0
2019-02-25T04:22:34.238Z,0
2019-02-25T04:23:14.753Z,0
2019-02-25T04:23:55.511Z,0
2019-02-25T04:24:35.974Z,0
2019-02-25T04:25:16.445Z,0
2019-02-25T04:25:57.777Z,0
2019-02-25T04:26:38.567Z,0
2019-02-25T04:27:19.154Z,0
2019-02-25T04:27:59.855Z,0
2019-02-25T04:28:40.797Z,0
2019-02-25T05:06:34.150Z,0
2019-02-25T05:07:14.585Z,0
2019-02-25T05:07:56.182Z,0
2019-02-25T05:08:36.220Z,0
2019-02-25T05:09:16.669Z,0
2019-02-25T05:09:57.063Z,0
2019-02-25T05:10:37.559Z,0
2019-02-25T05:11:17.954Z,0
2019-02-25T05:11:58.325Z,0
2019-02-25T05:12:38.720Z,0
2019-02-25T05:13:19.201Z,0
2019-02-25T05:13:59.621Z,0
2019-02-25T05:14:40.330Z,0
2019-02-25T05:15:20.709Z,0
2019-02-25T05:16:01.141Z,0
2019-02-25T05:16:48.510Z,0
2019-02-25T05:17:28.920Z,0
2019-02-25T05:18:09.360Z,0
2019-02-25T05:18:49.720Z,0
2019-02-25T05:19:30.096Z,0
2019-02-25T05:20:10.478Z,0
2019-02-25T05:20:50.856Z,0
2019-02-25T05:21:31.290Z,0
2019-02-25T05:22:11.646Z,0
2019-02-25T05:22:52.064Z,0
2019-02-25T05:23:32.525Z,0
2019-02-25T05:24:12.838Z,0
2019-02-25T05:24:53.217Z,0
2019-02-25T05:25:33.652Z,0
2019-02-25T05:26:14.023Z,0
2019-02-25T05:26:54.444Z,0
2019-02-25T05:27:34.837Z,0
2019-02-25T05:28:15.328Z,0
2019-02-25T05:28:55.706Z,0
2019-02-25T05:29:36.116Z,0
2019-02-25T05:30:16.473Z,0
2019-02-25T05:30:56.892Z,0
2019-02-25T05:31:37.313Z,0
2019-02-25T05:32:17.637Z,0
2019-02-25T05:32:58.019Z,0
2019-02-25T05:33:38.420Z,0
2019-02-25T05:34:18.804Z,0
2019-02-25T05:34:59.199Z,0
2019-02-25T05:35:39.556Z,0
2019-02-25T05:36:20.077Z,0
2019-02-25T05:37:00.460Z,0
2019-02-25T05:37:40.868Z,0
2019-02-25T05:38:21.294Z,0
2019-02-25T05:39:01.690Z,0
2019-02-25T05:39:42.124Z,0
2019-02-25T05:40:22.490Z,0
2019-02-25T05:41:02.876Z,0
2019-02-25T05:41:43.411Z,0
2019-02-25T05:42:23.779Z,0
2019-02-25T05:43:04.144Z,0
2019-02-25T05:43:44.667Z,0
2019-02-25T05:44:24.989Z,0
2019-02-25T05:45:05.363Z,0
2019-02-25T05:45:45.770Z,0
2019-02-25T05:46:26.169Z,0
2019-02-25T05:47:06.596Z,0
2019-02-25T05:47:46.966Z,0
2019-02-25T05:48:27.389Z,0
2019-02-25T05:49:09.611Z,0
2019-02-25T05:49:50.500Z,0
2019-02-25T05:50:31.057Z,0
2019-02-25T05:51:11.406Z,0
2019-02-25T05:51:51.781Z,0
2019-02-25T05:52:32.183Z,0
2019-02-25T05:53:12.651Z,4
2019-02-25T05:53:53.057Z,4
2019-02-25T05:54:33.448Z,0
2019-02-25T05:55:13.909Z,0
2019-02-25T05:55:54.248Z,0
2019-02-25T05:56:34.665Z,4
2019-02-25T05:57:15.060Z,0
2019-02-25T05:57:55.483Z,0
2019-02-25T05:58:35.856Z,4
2019-02-25T05:59:16.219Z,0
2019-02-25T05:59:56.568Z,4
2019-02-25T06:00:36.978Z,4
2019-02-25T06:01:17.386Z,4
2019-02-25T06:01:57.748Z,4
2019-02-25T06:02:38.110Z,8
2019-02-25T06:03:18.503Z,4
2019-02-25T06:03:59.004Z,4
2019-02-25T06:04:39.387Z,8
2019-02-25T06:05:19.783Z,8
2019-02-25T06:06:00.196Z,8
2019-02-25T06:06:40.703Z,8
2019-02-25T06:07:21.099Z,8
2019-02-25T06:08:01.501Z,8
2019-02-25T06:08:41.865Z,12
2019-02-25T06:09:22.229Z,12
2019-02-25T06:10:02.691Z,16
2019-02-25T06:10:43.052Z,16
2019-02-25T06:11:23.436Z,16
2019-02-25T06:12:03.854Z,20
2019-02-25T06:12:44.230Z,20
2019-02-25T06:13:24.632Z,24
2019-02-25T06:14:05.030Z,24
2019-02-25T06:14:45.445Z,32
2019-02-25T06:15:25.858Z,32
2019-02-25T06:16:06.252Z,32
2019-02-25T06:16:46.634Z,40
2019-02-25T06:27:02.007Z,124
2019-02-25T06:27:59.454Z,136
2019-02-25T06:28:54.532Z,144
2019-02-25T06:29:52.686Z,156
2019-02-25T06:30:48.686Z,172
2019-02-25T06:31:42.633Z,184
2019-02-25T06:32:39.283Z,208
2019-02-25T06:33:34.893Z,240
2019-02-25T06:38:04.290Z,412
2019-02-25T06:38:55.566Z,436
2019-02-25T06:41:31.932Z,612
2019-02-25T06:42:11.943Z,680
2019-02-25T06:42:52.324Z,712
2019-02-25T06:48:31.069Z,1236
2019-02-25T06:49:11.435Z,1268
2019-02-25T06:49:52.003Z,1384
2019-02-25T06:50:32.493Z,1488
2019-02-25T06:51:13.814Z,1640
2019-02-25T06:51:54.258Z,1696
2019-02-25T06:52:34.759Z,2004
2019-02-25T06:53:15.098Z,2284
2019-02-25T06:53:55.567Z,2356
2019-02-25T06:54:35.893Z,2360
2019-02-25T06:55:16.337Z,2304
2019-02-25T06:55:56.750Z,2308
2019-02-25T06:56:37.191Z,2368
2019-02-25T06:57:17.665Z,2508
2019-02-25T06:57:58.123Z,2536
2019-02-25T06:58:38.508Z,2656
2019-02-25T06:59:19.102Z,2788
2019-02-25T06:59:59.549Z,2960
2019-02-25T07:00:39.984Z,3164
2019-02-25T07:01:20.407Z,3340
2019-02-25T07:02:00.770Z,3452
2019-02-25T07:02:41.217Z,3620
2019-02-25T07:03:22.457Z,3804
2019-02-25T07:04:02.220Z,4096
2019-02-25T07:04:42.560Z,4504
2019-02-25T07:05:22.971Z,4868
2019-02-25T07:06:03.388Z,5184
2019-02-25T07:08:46.362Z,5244
2019-02-25T07:10:44.677Z,5180
2019-02-25T07:11:25.199Z,5552
2019-02-25T07:12:05.651Z,5736
2019-02-25T07:12:46.230Z,5608
2019-02-25T07:13:26.842Z,5756
2019-02-25T07:14:08.298Z,5784
2019-02-25T07:14:47.826Z,6164
2019-02-25T07:15:28.236Z,5888
2019-02-25T07:16:08.634Z,4936
2019-02-25T07:16:49.070Z,4012
2019-02-25T07:17:29.446Z,3800
2019-02-25T07:18:11.797Z,3824
2019-02-25T07:18:52.926Z,3860
2019-02-25T07:19:33.338Z,3892
2019-02-25T07:20:13.754Z,3852
2019-02-25T07:20:54.969Z,4016
2019-02-25T07:21:35.425Z,4244
2019-02-25T07:22:15.852Z,4372
2019-02-25T07:22:56.378Z,4368
2019-02-25T07:23:37.690Z,4332
2019-02-25T07:24:17.299Z,4280
2019-02-25T07:24:57.662Z,4144
2019-02-25T07:25:38.116Z,4112
2019-02-25T07:26:18.488Z,3968
2019-02-25T07:26:58.917Z,3660
2019-02-25T07:27:39.418Z,3328
2019-02-25T07:28:19.779Z,3288
2019-02-25T07:29:00.248Z,3368
2019-02-25T07:29:40.680Z,3476
2019-02-25T07:30:22.385Z,3632
2019-02-25T07:31:02.510Z,3772
2019-02-25T07:31:42.795Z,3772
2019-02-25T07:32:23.701Z,3836
2019-02-25T07:33:03.904Z,3892
2019-02-25T07:33:44.408Z,3904
2019-02-25T07:34:25.071Z,3872
2019-02-25T07:35:05.569Z,3880
2019-02-25T07:35:46.052Z,3920
2019-02-25T07:36:26.539Z,4032
2019-02-25T07:37:07.913Z,4104
2019-02-25T07:37:51.502Z,4116
2019-02-25T07:38:38.965Z,4148
2019-02-25T07:39:11.565Z,4064
2019-02-25T07:39:52.281Z,3940
2019-02-25T07:45:25.057Z,4192
2019-02-25T07:46:06.147Z,4308
2019-02-25T07:46:47.290Z,4272
2019-02-25T07:47:27.786Z,4168
2019-02-25T07:48:09.640Z,4108
2019-02-25T07:48:49.434Z,4080
2019-02-25T07:49:30.055Z,4060
2019-02-25T07:50:10.957Z,4036
2019-02-25T07:50:51.640Z,4020
2019-02-25T07:51:32.491Z,4092
2019-02-25T07:52:13.384Z,4164
2019-02-25T07:52:53.825Z,4320
2019-02-25T07:53:34.646Z,4292
2019-02-25T07:54:15.063Z,4220
2019-02-25T07:54:55.788Z,4104
2019-02-25T07:55:36.368Z,3920
2019-02-25T07:56:16.864Z,3744
2019-02-25T07:56:57.261Z,3420
2019-02-25T07:57:37.775Z,3092
2019-02-25T07:58:18.219Z,2888
2019-02-25T07:58:58.631Z,2736
2019-02-25T07:59:39.028Z,2708
2019-02-25T08:05:04.703Z,1436
2019-02-25T08:06:14.514Z,1412
2019-02-25T08:07:15.286Z,1392
2019-02-25T08:08:16.262Z,1384
2019-02-25T08:09:22.240Z,1368
2019-02-25T11:07:37.224Z,1192
2019-02-25T11:08:15.465Z,1188
2019-02-25T11:08:55.912Z,1188
2019-02-25T11:09:36.701Z,1180
2019-02-25T11:10:20.321Z,1188
2019-02-25T11:11:03.218Z,1184
2019-02-25T11:11:43.691Z,1184
2019-02-25T11:12:27.813Z,1184
2019-02-25T11:13:06.251Z,1184
2019-02-25T11:13:46.719Z,1180
2019-02-25T11:14:31.045Z,1180
2019-02-25T11:15:11.628Z,1180
2019-02-25T11:15:51.040Z,1184
2019-02-25T11:16:33.055Z,1180
2019-02-25T11:17:13.954Z,1176
2019-02-25T11:17:55.997Z,1172
2019-02-25T11:18:34.891Z,1176
2019-02-25T11:19:16.309Z,1168
2019-02-25T11:19:58.509Z,1168
2019-02-25T11:20:37.773Z,1164
2019-02-25T11:21:17.694Z,1160
2019-02-25T11:21:59.069Z,1164
2019-02-25T11:22:40.297Z,1160
2019-02-25T11:23:21.577Z,1168
2019-02-25T11:24:00.425Z,1172
2019-02-25T11:24:40.916Z,1164
2019-02-25T11:25:25.654Z,1164
2019-02-25T11:26:04.307Z,1168
2019-02-25T11:26:44.731Z,1160
2019-02-25T11:27:25.122Z,1168
2019-02-25T11:28:07.474Z,1168
2019-02-25T11:28:45.943Z,1164
2019-02-25T11:29:26.410Z,1164
2019-02-25T11:30:06.757Z,1164
2019-02-25T11:30:49.181Z,1164
2019-02-25T11:31:29.126Z,1160
2019-02-25T11:32:07.985Z,1160
2019-02-25T11:32:49.043Z,1156
2019-02-25T11:33:30.157Z,1160
2019-02-25T11:34:09.211Z,1160
2019-02-25T11:34:49.590Z,1160
2019-02-25T11:35:30.020Z,1156
2019-02-25T11:36:11.049Z,1160
2019-02-25T11:36:53.059Z,1156
2019-02-25T11:37:36.272Z,1156
2019-02-25T11:38:17.699Z,1152
2019-02-25T11:39:00.026Z,1148
2019-02-25T11:39:38.624Z,1148
2019-02-25T11:40:21.674Z,1148
2019-02-25T11:41:03.791Z,1144
2019-02-25T11:41:42.392Z,1144
2019-02-25T11:42:22.877Z,1144
2019-02-25T11:43:03.315Z,1144
2019-02-25T11:43:45.702Z,1136
2019-02-25T11:44:26.061Z,1140
2019-02-25T11:45:04.697Z,1140
2019-02-25T11:45:45.171Z,1132
2019-02-25T11:48:16.919Z,1132
2019-02-25T11:48:57.241Z,1132
2019-02-25T11:49:37.673Z,1136
2019-02-25T11:50:18.016Z,1136
2019-02-25T11:50:58.467Z,1132
2019-02-25T11:51:38.865Z,1128
2019-02-25T11:52:19.309Z,1128
2019-02-25T11:52:59.751Z,1128
2019-02-25T11:53:40.315Z,1128
2019-02-25T11:54:20.631Z,1124
2019-02-25T11:55:01.049Z,1124
2019-02-25T11:55:41.460Z,1128
2019-02-25T11:56:21.873Z,1124
2019-02-25T11:57:02.411Z,1124
2019-02-25T11:57:42.766Z,1124
2019-02-25T11:58:23.203Z,1124
2019-02-25T11:59:03.640Z,1124
2019-02-25T11:59:44.113Z,1120
2019-02-25T12:00:24.446Z,1120
2019-02-25T12:01:04.889Z,1120
2019-02-25T12:01:45.854Z,1120
2019-02-25T12:02:27.679Z,1120
2019-02-25T12:03:08.457Z,1120
2019-02-25T12:03:49.359Z,1120
2019-02-25T12:04:30.210Z,1112
2019-02-25T12:05:11.091Z,1112
2019-02-25T12:05:53.318Z,1112
2019-02-25T12:06:34.242Z,1120
2019-02-25T12:07:14.825Z,1112
2019-02-25T12:07:57.394Z,1108
2019-02-25T12:08:37.758Z,1112
2019-02-25T12:09:18.208Z,1116
2019-02-25T12:09:58.562Z,1116
2019-02-25T12:10:38.964Z,1112
2019-02-25T12:11:19.422Z,1104
2019-02-25T12:13:55.695Z,1092
2019-02-25T12:14:36.120Z,1084
2019-02-25T12:15:16.840Z,1080
2019-02-25T12:15:57.232Z,1088
2019-02-25T12:16:38.613Z,1092
2019-02-25T12:17:21.008Z,1088
2019-02-25T12:18:01.457Z,1096
2019-02-25T12:18:41.819Z,1100
2019-02-25T12:19:22.234Z,1096
2019-02-25T12:20:02.640Z,1096
2019-02-25T12:20:42.998Z,1096
2019-02-25T12:21:23.431Z,1096
2019-02-25T12:22:03.885Z,1092
2019-02-25T12:22:44.282Z,1092
2019-02-25T12:23:24.902Z,1096
2019-02-25T12:24:05.442Z,1096
2019-02-25T12:24:46.436Z,1092
2019-02-25T12:25:26.800Z,1092
2019-02-25T12:26:08.298Z,1088
2019-02-25T12:26:49.074Z,1088
2019-02-25T12:27:29.643Z,1084
2019-02-25T12:28:10.752Z,1084
2019-02-25T12:28:51.989Z,1084
2019-02-25T12:29:32.467Z,1084
2019-02-25T12:30:12.852Z,1084
2019-02-25T12:30:53.274Z,1084
2019-02-25T12:31:33.620Z,1084
2019-02-25T12:32:14.152Z,1084
2019-02-25T12:32:54.492Z,1080
2019-02-25T12:33:34.933Z,1080
2019-02-25T12:34:15.353Z,1076
2019-02-25T12:34:55.729Z,1080
2019-02-25T12:37:28.729Z,1068
2019-02-25T12:38:10.157Z,1064
2019-02-25T12:38:50.639Z,1064
2019-02-25T12:39:31.001Z,1060
2019-02-25T12:40:11.423Z,1064
2019-02-25T12:40:51.863Z,1060
2019-02-25T12:41:32.337Z,1060
2019-02-25T12:42:12.701Z,1064
2019-02-25T12:42:53.079Z,1060
2019-02-25T12:43:33.514Z,1060
2019-02-25T12:44:13.946Z,1064
2019-02-25T12:44:54.325Z,1060
2019-02-25T12:45:34.742Z,1060
2019-02-25T12:46:15.175Z,1056
2019-02-25T12:48:13.538Z,1052
2019-02-25T12:48:53.906Z,1052
2019-02-25T12:49:34.339Z,1052
2019-02-25T12:50:14.751Z,1052
2019-02-25T12:50:55.172Z,1052
2019-02-25T12:51:35.610Z,1052
2019-02-25T12:52:16.159Z,1052
2019-02-25T12:52:56.678Z,1056
2019-02-25T12:53:37.819Z,1052
2019-02-25T12:54:17.584Z,1052
2019-02-25T12:54:58.014Z,1052
2019-02-25T12:55:38.437Z,1048
2019-02-25T12:56:18.875Z,1048
2019-02-25T12:56:59.275Z,1044
2019-02-25T12:57:39.703Z,1044
2019-02-25T12:58:20.120Z,1044
2019-02-25T12:59:00.521Z,1044
2019-02-25T13:01:29.745Z,1044
2019-02-25T13:02:10.435Z,1044
2019-02-25T13:02:51.896Z,1044
2019-02-25T13:03:33.156Z,1036
2019-02-25T13:04:13.774Z,1040
2019-02-25T13:04:54.237Z,1036
2019-02-25T13:05:34.785Z,1036
2019-02-25T13:06:15.358Z,1036
2019-02-25T13:06:56.831Z,1036
2019-02-25T13:07:37.250Z,1032
2019-02-25T13:08:17.885Z,1032
2019-02-25T13:08:58.314Z,1032
2019-02-25T13:09:38.820Z,1032
2019-02-25T13:10:19.218Z,1032
2019-02-25T13:10:59.647Z,1028
2019-02-25T13:11:40.121Z,1028
2019-02-25T13:12:20.589Z,1028
2019-02-25T13:13:00.992Z,1028
2019-02-25T13:13:41.582Z,1028
2019-02-25T13:14:22.220Z,1024
2019-02-25T13:15:12.811Z,1024
2019-02-25T13:15:44.239Z,1024
2019-02-25T13:16:24.884Z,1024
2019-02-25T13:17:05.644Z,1024
2019-02-25T13:17:46.826Z,1024
2019-02-25T13:18:27.080Z,1028
2019-02-25T13:19:07.579Z,1024
2019-02-25T13:19:48.092Z,1024
2019-02-25T13:20:28.548Z,1024
2019-02-25T13:21:08.984Z,1024
2019-02-25T13:21:49.384Z,1020
2019-02-25T13:22:29.833Z,1024
2019-02-25T13:23:11.390Z,1024
2019-02-25T13:23:51.890Z,1024
2019-02-25T13:24:35.116Z,1024
2019-02-25T13:25:14.638Z,1024
2019-02-25T13:25:55.063Z,1020
2019-02-25T13:26:36.582Z,1020
2019-02-25T13:27:17.015Z,1020
2019-02-25T13:27:58.728Z,1020
2019-02-25T13:28:38.410Z,1020
2019-02-25T13:29:18.818Z,1020
2019-02-25T13:29:59.293Z,1020
2019-02-25T13:30:40.302Z,1016
2019-02-25T13:31:20.398Z,1016
2019-02-25T13:32:00.783Z,1016
2019-02-25T13:32:41.229Z,1016
2019-02-25T13:33:22.641Z,1016
2019-02-25T13:34:03.098Z,1012
2019-02-25T13:34:43.520Z,1012
2019-02-25T13:35:23.928Z,1012
2019-02-25T13:36:04.974Z,1012
2019-02-25T13:36:45.391Z,1008
2019-02-25T13:37:25.818Z,1012
2019-02-25T13:38:07.167Z,1012
2019-02-25T13:38:47.631Z,1012
2019-02-25T13:39:28.097Z,1012
2019-02-25T13:40:08.529Z,1012
2019-02-25T13:40:49.006Z,1012
2019-02-25T13:41:29.483Z,1012
2019-02-25T13:42:09.879Z,1008
2019-02-25T13:42:50.308Z,1008
2019-02-25T13:43:30.741Z,1008
2019-02-25T13:44:11.179Z,1008
2019-02-25T13:44:51.661Z,1004
2019-02-25T13:45:32.730Z,1008
2019-02-25T13:46:13.254Z,1004
2019-02-25T13:46:53.882Z,1004
2019-02-25T13:47:34.419Z,1004
2019-02-25T13:48:14.844Z,1000
2019-02-25T13:48:57.360Z,1000
2019-02-25T13:49:35.718Z,1000
2019-02-25T13:50:16.211Z,1000
2019-02-25T13:50:57.345Z,996
2019-02-25T13:51:37.755Z,996
2019-02-25T13:52:18.175Z,996
2019-02-25T13:52:58.579Z,996
2019-02-25T13:53:39.984Z,992
2019-02-25T13:54:20.453Z,988
2019-02-25T13:55:00.802Z,988
2019-02-25T13:55:41.226Z,988
2019-02-25T13:56:21.690Z,988
2019-02-25T13:57:02.145Z,992
2019-02-25T13:57:43.077Z,988
2019-02-25T13:58:24.308Z,984
2019-02-25T13:59:04.164Z,984
2019-02-25T13:59:44.551Z,984
2019-02-25T14:00:24.943Z,984
2019-02-25T14:01:05.456Z,980
2019-02-25T14:01:45.828Z,984
2019-02-25T14:02:26.860Z,980
2019-02-25T14:03:07.778Z,976
2019-02-25T14:03:48.257Z,976
2019-02-25T14:04:28.660Z,972
2019-02-25T14:05:09.238Z,972
2019-02-25T14:05:49.598Z,968
2019-02-25T14:06:30.809Z,968
2019-02-25T14:07:10.601Z,964
2019-02-25T14:07:51.056Z,960
2019-02-25T14:08:31.473Z,964
2019-02-25T14:09:11.974Z,960
2019-02-25T14:09:52.485Z,960
2019-02-25T14:10:35.395Z,952
2019-02-25T14:11:15.206Z,956
2019-02-25T14:11:55.645Z,952
2019-02-25T14:12:36.847Z,952
2019-02-25T14:13:16.692Z,948
2019-02-25T14:13:57.122Z,944
2019-02-25T14:14:37.556Z,944
2019-02-25T14:15:18.113Z,944
2019-02-25T14:15:58.383Z,940
2019-02-25T14:16:38.805Z,940